createdAt,value
2019-02-04T00:02:45.317Z,99.9
2019-02-04T00:07:46.038Z,99.9
2019-02-04T00:12:28.631Z,99.9
2019-02-04T00:17:28.247Z,99.9
2019-02-04T00:22:28.116Z,99.9
2019-02-04T00:27:27.993Z,99.9
2019-02-04T00:32:28.589Z,99.9
2019-02-04T00:37:28.081Z,99.9
2019-02-04T00:42:27.565Z,99.9
2019-02-04T00:47:28.369Z,99.9
2019-02-04T00:52:27.728Z,99.9
2019-02-04T00:57:29.321Z,99.9
2019-02-04T01:02:28.367Z,99.9
2019-02-04T01:07:27.734Z,99.9
2019-02-04T01:12:28.500Z,99.9
2019-02-04T01:17:28.430Z,99.9
2019-02-04T01:22:28.538Z,99.9
2019-02-04T01:27:27.798Z,99.9
2019-02-04T01:32:28.578Z,99.9
2019-02-04T01:37:27.555Z,99.9
2019-02-04T01:42:27.439Z,99.9
2019-02-04T01:47:28.887Z,99.9
2019-02-04T01:52:28.525Z,99.9
2019-02-04T01:57:28.420Z,99.9
2019-02-04T02:02:28.932Z,99.9
2019-02-04T02:07:27.489Z,99.9
2019-02-04T02:12:28.991Z,99.9
2019-02-04T02:17:28.575Z,99.9
2019-02-04T02:22:27.996Z,99.9
2019-02-04T02:27:27.735Z,99.9
2019-02-04T02:32:28.403Z,99.9
2019-02-04T02:37:28.086Z,99.9
2019-02-04T02:42:29.086Z,99.9
2019-02-04T02:47:38.883Z,99.9
2019-02-04T02:52:29.027Z,99.9
2019-02-04T02:57:27.597Z,99.9
2019-02-04T03:02:28.848Z,99.9
2019-02-04T03:07:28.190Z,99.9
2019-02-04T03:12:28.754Z,99.9
2019-02-04T03:17:27.994Z,99.9
2019-02-04T03:22:28.583Z,99.9
2019-02-04T03:27:28.432Z,99.9
2019-02-04T03:32:27.672Z,99.9
2019-02-04T03:37:27.692Z,99.9
2019-02-04T03:42:28.221Z,99.9
2019-02-04T03:47:28.247Z,99.9
2019-02-04T03:52:28.544Z,99.9
2019-02-04T03:57:27.844Z,99.9
2019-02-04T04:02:28.243Z,99.9
2019-02-04T04:07:28.515Z,99.9
2019-02-04T04:12:27.906Z,99.9
2019-02-04T04:17:29.992Z,99.9
2019-02-04T04:22:28.569Z,99.9
2019-02-04T04:27:28.466Z,99.9
2019-02-04T04:32:30.542Z,99.9
2019-02-04T04:37:28.646Z,99.9
2019-02-04T04:42:28.511Z,99.9
2019-02-04T04:47:28.694Z,99.9
2019-02-04T04:52:27.412Z,99.9
2019-02-04T04:57:28.607Z,99.9
2019-02-04T05:02:28.122Z,99.9
2019-02-04T05:07:28.507Z,99.9
2019-02-04T05:12:28.863Z,99.9
2019-02-04T05:17:29.465Z,99.9
2019-02-04T05:22:27.863Z,99.9
2019-02-04T05:27:28.594Z,99.9
2019-02-04T05:32:28.454Z,99.9
2019-02-04T05:37:28.427Z,99.9
2019-02-04T05:42:28.031Z,99.9
2019-02-04T05:47:28.932Z,99.9
2019-02-04T05:52:28.629Z,99.9
2019-02-04T05:57:28.229Z,99.9
2019-02-04T06:02:28.089Z,99.9
2019-02-04T06:07:28.535Z,99.9
2019-02-04T06:12:28.009Z,99.9
2019-02-04T06:17:28.930Z,99.9
2019-02-04T06:22:29.167Z,99.9
2019-02-04T06:27:28.906Z,99.9
2019-02-04T06:32:28.432Z,99.9
2019-02-04T06:37:28.024Z,99.9
2019-02-04T06:42:28.747Z,99.9
2019-02-04T06:47:28.583Z,99.9
2019-02-04T06:52:28.630Z,99.9
2019-02-04T06:57:28.579Z,99.9
2019-02-04T07:02:28.421Z,99.9
2019-02-04T07:07:29.454Z,99.9
2019-02-04T07:12:28.893Z,99.9
2019-02-04T07:17:28.839Z,99.9
2019-02-04T07:22:29.099Z,99.9
2019-02-04T07:27:29.017Z,99.9
2019-02-04T07:32:30.986Z,99.9
2019-02-04T07:37:28.774Z,99.9
2019-02-04T07:42:29.981Z,99.9
2019-02-04T07:47:28.304Z,99.9
2019-02-04T07:52:28.667Z,99.9
2019-02-04T07:57:28.606Z,99.9
2019-02-04T08:02:31.313Z,99.9
2019-02-04T08:07:29.842Z,99.9
2019-02-04T08:12:28.998Z,99.9
2019-02-04T08:17:29.442Z,99.9
2019-02-04T08:22:27.619Z,99.9
2019-02-04T08:27:28.762Z,99.9
2019-02-04T08:32:28.222Z,99.9
2019-02-04T08:37:28.454Z,99.9
2019-02-04T08:42:29.154Z,99.9
2019-02-04T08:47:28.533Z,99.9
2019-02-04T08:52:28.835Z,99.9
2019-02-04T08:57:28.362Z,99.9
2019-02-04T09:02:29.272Z,99.9
2019-02-04T09:07:28.599Z,99.9
2019-02-04T09:12:28.305Z,99.9
2019-02-04T09:17:29.078Z,99.9
2019-02-04T09:22:28.511Z,99.9
2019-02-04T09:27:28.665Z,99.9
2019-02-04T09:32:29.032Z,99.9
2019-02-04T09:37:28.523Z,99.9
2019-02-04T09:42:28.691Z,99.9
2019-02-04T09:47:28.034Z,99.9
2019-02-04T09:52:28.432Z,99.9
2019-02-04T09:57:28.860Z,99.9
2019-02-04T10:02:29.262Z,99.9
2019-02-04T10:07:28.623Z,99.9
2019-02-04T10:12:29.186Z,99.9
2019-02-04T10:17:28.604Z,99.9
2019-02-04T10:22:28.622Z,99.9
2019-02-04T10:27:28.475Z,99.9
2019-02-04T10:32:29.140Z,99.9
2019-02-04T10:37:28.807Z,99.9
2019-02-04T10:42:28.761Z,99.9
2019-02-04T10:47:29.014Z,99.9
2019-02-04T10:52:28.650Z,99.9
2019-02-04T10:57:40.961Z,99.9
2019-02-04T11:02:28.209Z,99.9
2019-02-04T11:07:29.223Z,99.9
2019-02-04T11:12:28.849Z,99.9
2019-02-04T11:17:28.923Z,99.9
2019-02-04T11:22:28.267Z,99.9
2019-02-04T11:27:29.123Z,99.9
2019-02-04T11:32:28.730Z,99.9
2019-02-04T11:37:28.399Z,99.9
2019-02-04T11:42:29.071Z,99.9
2019-02-04T11:47:29.229Z,99.9
2019-02-04T11:52:28.462Z,99.9
2019-02-04T11:57:28.747Z,99.9
2019-02-04T12:02:35.016Z,99.9
2019-02-04T12:07:28.703Z,99.9
2019-02-04T12:12:28.568Z,99.9
2019-02-04T12:17:28.915Z,99.9
2019-02-04T12:22:28.917Z,99.9
2019-02-04T12:27:32.737Z,99.9
2019-02-04T12:32:28.374Z,99.9
2019-02-04T12:37:28.419Z,99.9
2019-02-04T12:42:28.612Z,99.9
2019-02-04T12:47:28.079Z,99.9
2019-02-04T12:52:28.579Z,99.9
2019-02-04T12:57:28.857Z,99.9
2019-02-04T13:02:29.066Z,99.9
2019-02-04T13:07:28.120Z,99.9
2019-02-04T13:12:28.471Z,99.9
2019-02-04T13:17:29.266Z,99.9
2019-02-04T13:22:28.886Z,99.9
2019-02-04T13:27:28.844Z,99.9
2019-02-04T13:32:29.133Z,99.9
2019-02-04T13:37:28.404Z,99.9
2019-02-04T13:42:28.547Z,99.9
2019-02-04T13:47:29.357Z,99.9
2019-02-04T13:52:28.401Z,99.9
2019-02-04T13:57:28.489Z,99.9
2019-02-04T14:02:28.194Z,99.9
2019-02-04T14:07:29.796Z,99.9
2019-02-04T14:12:28.763Z,99.9
2019-02-04T14:17:29.263Z,99.9
2019-02-04T14:22:28.638Z,99.9
2019-02-04T14:27:28.657Z,99.9
2019-02-04T14:32:28.620Z,98.7
2019-02-04T14:37:29.170Z,98.7
2019-02-04T14:42:28.671Z,95.9
2019-02-04T14:47:29.076Z,96.0
2019-02-04T14:52:28.246Z,93.1
2019-02-04T14:57:28.691Z,92.6
2019-02-04T15:02:28.972Z,93.5
2019-02-04T15:07:29.893Z,94.0
2019-02-04T15:12:29.234Z,95.3
2019-02-04T15:17:29.014Z,97.3
2019-02-04T15:22:33.881Z,97.0
2019-02-04T15:27:28.980Z,97.0
2019-02-04T15:32:30.007Z,97.4
2019-02-04T15:37:29.576Z,99.6
2019-02-04T15:42:32.896Z,99.9
2019-02-04T15:47:29.531Z,99.9
2019-02-04T15:52:28.149Z,99.9
2019-02-04T15:57:28.454Z,99.9
2019-02-04T16:02:29.514Z,99.9
2019-02-04T16:07:29.624Z,99.9
2019-02-04T16:12:29.407Z,99.9
2019-02-04T16:17:29.530Z,99.9
2019-02-04T16:22:29.286Z,99.9
2019-02-04T16:27:28.546Z,99.9
2019-02-04T16:32:28.769Z,99.9
2019-02-04T16:37:28.081Z,99.9
2019-02-04T16:42:28.282Z,99.9
2019-02-04T16:47:28.430Z,99.9
2019-02-04T16:52:28.974Z,99.9
2019-02-04T16:57:28.218Z,99.9
2019-02-04T17:02:28.220Z,99.9
2019-02-04T17:07:28.915Z,99.9
2019-02-04T17:12:28.019Z,99.9
2019-02-04T17:17:28.219Z,99.9
2019-02-04T17:22:28.174Z,99.9
2019-02-04T17:27:27.794Z,99.9
2019-02-04T17:32:28.105Z,99.9
2019-02-04T17:37:28.628Z,99.9
2019-02-04T17:42:27.802Z,99.9
2019-02-04T17:47:28.819Z,99.9
2019-02-04T17:52:28.288Z,99.9
2019-02-04T17:57:28.093Z,99.9
2019-02-04T18:02:28.666Z,99.9
2019-02-04T18:07:28.866Z,99.9
2019-02-04T18:12:28.130Z,99.9
2019-02-04T18:17:29.712Z,99.9
2019-02-04T18:22:28.101Z,99.9
2019-02-04T18:27:28.767Z,99.9
2019-02-04T18:32:28.591Z,99.9
2019-02-04T18:37:28.357Z,99.9
2019-02-04T18:42:28.069Z,99.9
2019-02-04T18:47:28.328Z,99.9
2019-02-04T18:52:28.361Z,99.9
2019-02-04T18:57:28.024Z,99.9
2019-02-04T19:02:28.038Z,99.9
2019-02-04T19:07:28.944Z,99.9
2019-02-04T19:12:27.848Z,99.9
2019-02-04T19:17:28.707Z,99.9
2019-02-04T19:22:28.362Z,99.9
2019-02-04T19:27:29.636Z,99.9
2019-02-04T19:32:29.102Z,99.9
2019-02-04T19:37:28.605Z,99.9
2019-02-04T19:42:28.218Z,99.9
2019-02-04T19:47:27.811Z,99.9
2019-02-04T19:52:28.621Z,99.9
2019-02-04T19:57:28.146Z,99.9
2019-02-04T20:02:28.283Z,99.9
2019-02-04T20:07:28.149Z,99.9
2019-02-04T20:12:28.098Z,99.9
2019-02-04T20:17:28.114Z,99.9
2019-02-04T20:22:28.344Z,99.9
2019-02-04T20:27:27.914Z,99.9
2019-02-04T20:32:29.792Z,99.9
2019-02-04T20:37:28.153Z,99.9
2019-02-04T20:42:28.515Z,99.9
2019-02-04T20:47:29.516Z,99.9
2019-02-04T20:52:28.873Z,99.9
2019-02-04T20:57:28.042Z,99.9
2019-02-04T21:02:29.021Z,99.9
2019-02-04T21:07:28.922Z,99.9
2019-02-04T21:12:27.862Z,99.9
2019-02-04T21:17:28.724Z,99.9
2019-02-04T21:22:27.277Z,99.9
2019-02-04T21:27:28.860Z,99.9
2019-02-04T21:32:28.110Z,99.9
2019-02-04T21:37:29.554Z,99.9
2019-02-04T21:42:28.675Z,99.9
2019-02-04T21:47:28.412Z,99.9
2019-02-04T21:52:28.407Z,99.9
2019-02-04T21:57:28.446Z,99.9
2019-02-04T22:02:27.976Z,99.9
2019-02-04T22:07:28.963Z,99.9
2019-02-04T22:12:28.112Z,99.9
2019-02-04T22:17:28.126Z,99.9
2019-02-04T22:22:28.695Z,99.9
2019-02-04T22:27:29.299Z,99.9
2019-02-04T22:32:28.712Z,99.9
2019-02-04T22:37:28.858Z,99.9
2019-02-04T22:42:28.240Z,99.9
2019-02-04T22:47:28.755Z,99.9
2019-02-04T22:52:28.262Z,99.9
2019-02-04T22:57:28.002Z,99.9
2019-02-04T23:02:28.188Z,99.9
2019-02-04T23:07:29.859Z,99.9
2019-02-04T23:12:27.948Z,99.9
2019-02-04T23:22:49.490Z,99.9
2019-02-04T23:27:47.621Z,99.9
2019-02-04T23:32:48.323Z,99.9
2019-02-04T23:37:47.663Z,99.9
2019-02-04T23:42:48.460Z,99.9
2019-02-04T23:47:49.174Z,99.9
2019-02-04T23:52:48.386Z,99.9
2019-02-04T23:57:48.055Z,99.9
